sensor_id;sensor_type;location;lat;lon;timestamp;temperature;humidity
14555;DHT22;7364;50.870;4.722;2024-02-16T00:01:28;14.00;99.90
14555;DHT22;7364;50.870;4.722;2024-02-16T00:03:55;13.90;99.90
14555;DHT22;7364;50.870;4.722;2024-02-16T00:06:22;13.90;99.90
14555;DHT22;7364;50.870;4.722;2024-02-16T00:08:49;13.90;99.90
14555;DHT22;7364;50.870;4.722;2024-02-16T00:11:17;13.90;99.90
14555;DHT22;7364;50.870;4.722;2024-02-16T00:13:44;13.90;99.90
14555;DHT22;7364;50.870;4.722;2024-02-16T00:16:11;13.80;99.90
14555;DHT22;7364;50.870;4.722;2024-02-16T00:18:39;13.80;99.90
14555;DHT22;7364;50.870;4.722;2024-02-16T00:21:06;13.80;99.90
14555;DHT22;7364;50.870;4.722;2024-02-16T00:23:34;13.80;99.90
14555;DHT22;7364;50.870;4.722;2024-02-16T00:26:02;13.80;99.90
14555;DHT22;7364;50.870;4.722;2024-02-16T00:28:33;13.80;99.90
14555;DHT22;7364;50.870;4.722;2024-02-16T00:31:00;13.70;99.90
14555;DHT22;7364;50.870;4.722;2024-02-16T00:33:28;13.70;99.90
14555;DHT22;7364;50.870;4.722;2024-02-16T00:35:56;13.70;99.90
14555;DHT22;7364;50.870;4.722;2024-02-16T00:38:24;13.70;99.90
14555;DHT22;7364;50.870;4.722;2024-02-16T00:40:54;13.70;99.90
14555;DHT22;7364;50.870;4.722;2024-02-16T00:43:21;13.70;99.90
14555;DHT22;7364;50.870;4.722;2024-02-16T00:45:48;13.70;99.90
14555;DHT22;7364;50.870;4.722;2024-02-16T00:48:15;13.70;99.90
14555;DHT22;7364;50.870;4.722;2024-02-16T00:50:43;13.70;99.90
14555;DHT22;7364;50.870;4.722;2024-02-16T00:53:11;13.70;99.90
14555;DHT22;7364;50.870;4.722;2024-02-16T00:55:38;13.70;99.90
14555;DHT22;7364;50.870;4.722;2024-02-16T00:58:07;13.70;99.90
14555;DHT22;7364;50.870;4.722;2024-02-16T01:00:34;13.70;99.90
14555;DHT22;7364;50.870;4.722;2024-02-16T01:03:01;13.80;99.90
14555;DHT22;7364;50.870;4.722;2024-02-16T01:05:28;13.80;99.90
14555;DHT22;7364;50.870;4.722;2024-02-16T01:07:55;13.80;99.90
14555;DHT22;7364;50.870;4.722;2024-02-16T01:10:24;13.90;99.90
14555;DHT22;7364;50.870;4.722;2024-02-16T01:12:51;13.80;99.90
14555;DHT22;7364;50.870;4.722;2024-02-16T01:15:20;13.90;99.90
14555;DHT22;7364;50.870;4.722;2024-02-16T01:17:47;14.00;99.90
14555;DHT22;7364;50.870;4.722;2024-02-16T01:20:15;14.00;99.90
14555;DHT22;7364;50.870;4.722;2024-02-16T01:22:42;13.90;99.90
14555;DHT22;7364;50.870;4.722;2024-02-16T01:25:10;13.80;99.90
14555;DHT22;7364;50.870;4.722;2024-02-16T01:27:39;13.60;99.90
14555;DHT22;7364;50.870;4.722;2024-02-16T01:30:07;13.60;99.90
14555;DHT22;7364;50.870;4.722;2024-02-16T01:32:34;13.50;99.90
14555;DHT22;7364;50.870;4.722;2024-02-16T01:35:01;13.50;99.90
14555;DHT22;7364;50.870;4.722;2024-02-16T01:37:29;13.50;99.90
14555;DHT22;7364;50.870;4.722;2024-02-16T01:39:56;13.40;99.90
14555;DHT22;7364;50.870;4.722;2024-02-16T01:42:23;13.40;99.90
14555;DHT22;7364;50.870;4.722;2024-02-16T01:44:51;13.40;99.90
14555;DHT22;7364;50.870;4.722;2024-02-16T01:47:19;13.40;99.90
14555;DHT22;7364;50.870;4.722;2024-02-16T01:49:46;13.50;99.90
14555;DHT22;7364;50.870;4.722;2024-02-16T01:52:14;13.60;99.90
14555;DHT22;7364;50.870;4.722;2024-02-16T01:54:41;13.50;99.90
14555;DHT22;7364;50.870;4.722;2024-02-16T01:57:09;13.40;99.90
14555;DHT22;7364;50.870;4.722;2024-02-16T01:59:38;13.40;99.90
14555;DHT22;7364;50.870;4.722;2024-02-16T02:02:07;13.50;99.90
14555;DHT22;7364;50.870;4.722;2024-02-16T02:04:34;13.40;99.90
14555;DHT22;7364;50.870;4.722;2024-02-16T02:07:11;13.40;99.90
14555;DHT22;7364;50.870;4.722;2024-02-16T02:09:38;13.40;99.90
14555;DHT22;7364;50.870;4.722;2024-02-16T02:12:06;13.50;99.90
14555;DHT22;7364;50.870;4.722;2024-02-16T02:14:34;13.50;99.90
14555;DHT22;7364;50.870;4.722;2024-02-16T02:17:01;13.50;99.90
14555;DHT22;7364;50.870;4.722;2024-02-16T02:19:30;13.60;99.90
14555;DHT22;7364;50.870;4.722;2024-02-16T02:21:58;13.60;99.90
14555;DHT22;7364;50.870;4.722;2024-02-16T02:24:28;13.80;99.90
14555;DHT22;7364;50.870;4.722;2024-02-16T02:26:55;13.70;99.90
14555;DHT22;7364;50.870;4.722;2024-02-16T02:29:23;13.60;99.90
14555;DHT22;7364;50.870;4.722;2024-02-16T02:31:50;13.50;99.90
14555;DHT22;7364;50.870;4.722;2024-02-16T02:34:17;13.50;99.90
14555;DHT22;7364;50.870;4.722;2024-02-16T02:36:44;13.40;99.90
14555;DHT22;7364;50.870;4.722;2024-02-16T02:39:11;13.40;99.90
14555;DHT22;7364;50.870;4.722;2024-02-16T02:41:41;13.50;99.90
14555;DHT22;7364;50.870;4.722;2024-02-16T02:44:09;13.50;99.90
14555;DHT22;7364;50.870;4.722;2024-02-16T02:46:36;13.50;99.90
14555;DHT22;7364;50.870;4.722;2024-02-16T02:49:03;13.60;99.90
14555;DHT22;7364;50.870;4.722;2024-02-16T02:51:31;13.50;99.90
14555;DHT22;7364;50.870;4.722;2024-02-16T02:53:59;13.60;99.90
14555;DHT22;7364;50.870;4.722;2024-02-16T02:56:26;13.60;99.90
14555;DHT22;7364;50.870;4.722;2024-02-16T02:58:55;13.60;99.90
14555;DHT22;7364;50.870;4.722;2024-02-16T03:01:22;13.60;99.90
14555;DHT22;7364;50.870;4.722;2024-02-16T03:03:49;13.70;99.90
14555;DHT22;7364;50.870;4.722;2024-02-16T03:06:18;13.60;99.90
14555;DHT22;7364;50.870;4.722;2024-02-16T03:08:45;13.60;99.90
14555;DHT22;7364;50.870;4.722;2024-02-16T03:11:12;13.60;99.90
14555;DHT22;7364;50.870;4.722;2024-02-16T03:13:39;13.60;99.90
14555;DHT22;7364;50.870;4.722;2024-02-16T03:16:08;13.60;99.90
14555;DHT22;7364;50.870;4.722;2024-02-16T03:18:35;13.60;99.90
14555;DHT22;7364;50.870;4.722;2024-02-16T03:21:03;13.70;99.90
14555;DHT22;7364;50.870;4.722;2024-02-16T03:23:30;13.70;99.90
14555;DHT22;7364;50.870;4.722;2024-02-16T03:25:57;13.60;99.90
14555;DHT22;7364;50.870;4.722;2024-02-16T03:28:25;13.70;99.90
14555;DHT22;7364;50.870;4.722;2024-02-16T03:30:52;13.70;99.90
14555;DHT22;7364;50.870;4.722;2024-02-16T03:33:22;13.70;99.90
14555;DHT22;7364;50.870;4.722;2024-02-16T03:35:49;13.70;99.90
14555;DHT22;7364;50.870;4.722;2024-02-16T03:38:16;13.70;99.90
14555;DHT22;7364;50.870;4.722;2024-02-16T03:40:43;13.80;99.90
14555;DHT22;7364;50.870;4.722;2024-02-16T03:43:10;13.80;99.90
14555;DHT22;7364;50.870;4.722;2024-02-16T03:45:37;13.80;99.90
14555;DHT22;7364;50.870;4.722;2024-02-16T03:48:05;13.70;99.90
14555;DHT22;7364;50.870;4.722;2024-02-16T03:50:34;13.80;99.90
14555;DHT22;7364;50.870;4.722;2024-02-16T03:53:01;13.80;99.90
14555;DHT22;7364;50.870;4.722;2024-02-16T03:55:30;13.80;99.90
14555;DHT22;7364;50.870;4.722;2024-02-16T03:57:59;13.80;99.90
14555;DHT22;7364;50.870;4.722;2024-02-16T04:00:26;13.90;99.90
14555;DHT22;7364;50.870;4.722;2024-02-16T04:02:53;13.90;99.90
14555;DHT22;7364;50.870;4.722;2024-02-16T04:05:20;13.90;99.90
14555;DHT22;7364;50.870;4.722;2024-02-16T04:07:49;14.00;99.90
14555;DHT22;7364;50.870;4.722;2024-02-16T04:10:16;13.90;99.90
14555;DHT22;7364;50.870;4.722;2024-02-16T04:12:43;14.00;99.90
14555;DHT22;7364;50.870;4.722;2024-02-16T04:15:10;14.00;99.90
14555;DHT22;7364;50.870;4.722;2024-02-16T04:17:38;14.00;99.90
14555;DHT22;7364;50.870;4.722;2024-02-16T04:20:06;14.00;99.90
14555;DHT22;7364;50.870;4.722;2024-02-16T04:22:34;14.10;99.90
14555;DHT22;7364;50.870;4.722;2024-02-16T04:25:05;14.10;99.90
14555;DHT22;7364;50.870;4.722;2024-02-16T04:27:32;14.10;99.90
14555;DHT22;7364;50.870;4.722;2024-02-16T04:30:00;14.10;99.90
14555;DHT22;7364;50.870;4.722;2024-02-16T04:32:27;14.10;99.90
14555;DHT22;7364;50.870;4.722;2024-02-16T04:34:54;14.10;99.90
14555;DHT22;7364;50.870;4.722;2024-02-16T04:37:22;14.20;99.90
14555;DHT22;7364;50.870;4.722;2024-02-16T04:39:49;14.20;99.90
14555;DHT22;7364;50.870;4.722;2024-02-16T04:42:17;14.20;99.90
14555;DHT22;7364;50.870;4.722;2024-02-16T04:44:45;14.20;99.90
14555;DHT22;7364;50.870;4.722;2024-02-16T04:47:12;14.20;99.90
14555;DHT22;7364;50.870;4.722;2024-02-16T04:49:39;14.20;99.90
14555;DHT22;7364;50.870;4.722;2024-02-16T04:52:06;14.30;99.90
14555;DHT22;7364;50.870;4.722;2024-02-16T04:54:34;14.30;99.90
14555;DHT22;7364;50.870;4.722;2024-02-16T04:57:02;14.30;99.90
14555;DHT22;7364;50.870;4.722;2024-02-16T04:59:30;14.30;99.90
14555;DHT22;7364;50.870;4.722;2024-02-16T05:01:58;14.30;99.90
14555;DHT22;7364;50.870;4.722;2024-02-16T05:04:25;14.50;99.90
14555;DHT22;7364;50.870;4.722;2024-02-16T05:06:55;14.40;99.90
14555;DHT22;7364;50.870;4.722;2024-02-16T05:09:23;14.30;99.90
14555;DHT22;7364;50.870;4.722;2024-02-16T05:11:52;14.30;99.90
14555;DHT22;7364;50.870;4.722;2024-02-16T05:14:19;14.30;99.90
14555;DHT22;7364;50.870;4.722;2024-02-16T05:16:48;14.30;99.90
14555;DHT22;7364;50.870;4.722;2024-02-16T05:19:16;14.40;99.90
14555;DHT22;7364;50.870;4.722;2024-02-16T05:21:44;14.50;99.90
14555;DHT22;7364;50.870;4.722;2024-02-16T05:24:11;14.50;99.90
14555;DHT22;7364;50.870;4.722;2024-02-16T05:26:38;14.40;99.90
14555;DHT22;7364;50.870;4.722;2024-02-16T05:29:05;14.50;99.90
14555;DHT22;7364;50.870;4.722;2024-02-16T05:31:32;14.60;99.90
14555;DHT22;7364;50.870;4.722;2024-02-16T05:34:01;14.60;99.90
14555;DHT22;7364;50.870;4.722;2024-02-16T05:36:28;14.60;99.90
14555;DHT22;7364;50.870;4.722;2024-02-16T05:39:01;14.60;99.90
14555;DHT22;7364;50.870;4.722;2024-02-16T05:41:46;14.50;99.90
14555;DHT22;7364;50.870;4.722;2024-02-16T05:44:13;14.50;99.90
14555;DHT22;7364;50.870;4.722;2024-02-16T05:46:40;14.40;99.90
14555;DHT22;7364;50.870;4.722;2024-02-16T05:49:09;14.50;99.90
14555;DHT22;7364;50.870;4.722;2024-02-16T05:51:36;14.50;99.90
14555;DHT22;7364;50.870;4.722;2024-02-16T05:54:05;14.50;99.90
14555;DHT22;7364;50.870;4.722;2024-02-16T05:56:33;14.60;99.90
14555;DHT22;7364;50.870;4.722;2024-02-16T05:59:02;14.70;99.90
14555;DHT22;7364;50.870;4.722;2024-02-16T06:01:30;14.70;99.90
14555;DHT22;7364;50.870;4.722;2024-02-16T06:03:57;14.70;99.90
14555;DHT22;7364;50.870;4.722;2024-02-16T06:06:26;14.70;99.90
14555;DHT22;7364;50.870;4.722;2024-02-16T06:08:53;14.80;99.90
14555;DHT22;7364;50.870;4.722;2024-02-16T06:11:20;14.80;99.90
14555;DHT22;7364;50.870;4.722;2024-02-16T06:13:47;14.80;99.90
14555;DHT22;7364;50.870;4.722;2024-02-16T06:16:15;14.90;99.90
14555;DHT22;7364;50.870;4.722;2024-02-16T06:18:43;14.90;99.90
14555;DHT22;7364;50.870;4.722;2024-02-16T06:21:10;15.00;99.90
14555;DHT22;7364;50.870;4.722;2024-02-16T06:23:40;15.00;99.90
14555;DHT22;7364;50.870;4.722;2024-02-16T06:26:08;15.00;99.90
14555;DHT22;7364;50.870;4.722;2024-02-16T06:28:36;14.90;99.90
14555;DHT22;7364;50.870;4.722;2024-02-16T06:31:03;14.90;99.90
14555;DHT22;7364;50.870;4.722;2024-02-16T06:33:30;15.10;99.90
14555;DHT22;7364;50.870;4.722;2024-02-16T06:35:58;15.20;99.90
14555;DHT22;7364;50.870;4.722;2024-02-16T06:38:25;15.10;99.90
14555;DHT22;7364;50.870;4.722;2024-02-16T06:40:53;15.20;99.90
14555;DHT22;7364;50.870;4.722;2024-02-16T06:43:20;15.20;99.90
14555;DHT22;7364;50.870;4.722;2024-02-16T06:45:48;15.00;99.90
14555;DHT22;7364;50.870;4.722;2024-02-16T06:48:15;15.00;99.90
14555;DHT22;7364;50.870;4.722;2024-02-16T06:50:42;15.10;99.90
14555;DHT22;7364;50.870;4.722;2024-02-16T06:53:09;15.00;99.90
14555;DHT22;7364;50.870;4.722;2024-02-16T06:55:37;15.00;99.90
14555;DHT22;7364;50.870;4.722;2024-02-16T06:58:05;15.10;99.90
14555;DHT22;7364;50.870;4.722;2024-02-16T07:00:32;15.10;99.90
14555;DHT22;7364;50.870;4.722;2024-02-16T07:03:01;15.10;99.90
14555;DHT22;7364;50.870;4.722;2024-02-16T07:05:28;15.00;99.90
14555;DHT22;7364;50.870;4.722;2024-02-16T07:07:57;15.10;99.90
14555;DHT22;7364;50.870;4.722;2024-02-16T07:10:24;15.20;99.90
14555;DHT22;7364;50.870;4.722;2024-02-16T07:12:51;15.40;99.90
14555;DHT22;7364;50.870;4.722;2024-02-16T07:15:20;15.50;99.90
14555;DHT22;7364;50.870;4.722;2024-02-16T07:17:47;15.40;99.90
14555;DHT22;7364;50.870;4.722;2024-02-16T07:20:14;15.20;99.90
14555;DHT22;7364;50.870;4.722;2024-02-16T07:22:42;15.30;99.90
14555;DHT22;7364;50.870;4.722;2024-02-16T07:25:09;15.40;99.90
14555;DHT22;7364;50.870;4.722;2024-02-16T07:27:38;15.40;99.90
14555;DHT22;7364;50.870;4.722;2024-02-16T07:30:06;15.30;99.90
14555;DHT22;7364;50.870;4.722;2024-02-16T07:32:35;15.40;99.90
14555;DHT22;7364;50.870;4.722;2024-02-16T07:35:02;15.50;99.90
14555;DHT22;7364;50.870;4.722;2024-02-16T07:37:30;15.30;99.90
14555;DHT22;7364;50.870;4.722;2024-02-16T07:39:58;15.30;99.90
14555;DHT22;7364;50.870;4.722;2024-02-16T07:42:25;15.30;99.90
14555;DHT22;7364;50.870;4.722;2024-02-16T07:44:53;15.20;99.90
14555;DHT22;7364;50.870;4.722;2024-02-16T07:47:20;15.00;99.90
14555;DHT22;7364;50.870;4.722;2024-02-16T07:49:49;15.10;99.90
14555;DHT22;7364;50.870;4.722;2024-02-16T07:52:16;15.30;99.90
14555;DHT22;7364;50.870;4.722;2024-02-16T07:54:43;15.30;99.90
14555;DHT22;7364;50.870;4.722;2024-02-16T07:57:11;15.30;99.90
14555;DHT22;7364;50.870;4.722;2024-02-16T07:59:42;15.40;99.90
14555;DHT22;7364;50.870;4.722;2024-02-16T08:02:09;15.40;99.90
14555;DHT22;7364;50.870;4.722;2024-02-16T08:04:41;15.50;99.90
14555;DHT22;7364;50.870;4.722;2024-02-16T08:07:09;15.60;99.90
14555;DHT22;7364;50.870;4.722;2024-02-16T08:09:37;15.40;99.90
14555;DHT22;7364;50.870;4.722;2024-02-16T08:12:05;15.50;99.90
14555;DHT22;7364;50.870;4.722;2024-02-16T08:14:32;15.50;99.90
14555;DHT22;7364;50.870;4.722;2024-02-16T08:17:00;15.40;99.90
14555;DHT22;7364;50.870;4.722;2024-02-16T08:19:33;15.30;99.90
14555;DHT22;7364;50.870;4.722;2024-02-16T08:22:00;15.30;99.90
14555;DHT22;7364;50.870;4.722;2024-02-16T08:24:29;15.30;99.90
14555;DHT22;7364;50.870;4.722;2024-02-16T08:26:56;15.20;99.90
14555;DHT22;7364;50.870;4.722;2024-02-16T08:29:23;15.20;99.90
14555;DHT22;7364;50.870;4.722;2024-02-16T08:31:51;15.00;99.90
14555;DHT22;7364;50.870;4.722;2024-02-16T08:34:18;14.70;99.90
14555;DHT22;7364;50.870;4.722;2024-02-16T08:36:46;14.70;99.90
14555;DHT22;7364;50.870;4.722;2024-02-16T08:39:14;14.70;99.90
14555;DHT22;7364;50.870;4.722;2024-02-16T08:41:43;14.50;99.90
14555;DHT22;7364;50.870;4.722;2024-02-16T08:44:11;14.40;99.90
14555;DHT22;7364;50.870;4.722;2024-02-16T08:46:38;14.10;99.90
14555;DHT22;7364;50.870;4.722;2024-02-16T08:49:05;14.10;99.90
14555;DHT22;7364;50.870;4.722;2024-02-16T08:51:33;14.00;99.90
14555;DHT22;7364;50.870;4.722;2024-02-16T08:54:00;13.90;99.90
14555;DHT22;7364;50.870;4.722;2024-02-16T08:56:28;14.00;99.90
14555;DHT22;7364;50.870;4.722;2024-02-16T08:58:59;14.20;99.90
14555;DHT22;7364;50.870;4.722;2024-02-16T09:01:33;14.10;99.90
14555;DHT22;7364;50.870;4.722;2024-02-16T09:04:01;14.30;99.90
14555;DHT22;7364;50.870;4.722;2024-02-16T09:06:28;14.40;99.90
14555;DHT22;7364;50.870;4.722;2024-02-16T09:08:55;14.50;99.90
14555;DHT22;7364;50.870;4.722;2024-02-16T09:11:23;14.50;99.90
14555;DHT22;7364;50.870;4.722;2024-02-16T09:13:50;14.70;99.90
14555;DHT22;7364;50.870;4.722;2024-02-16T09:16:19;14.70;99.90
14555;DHT22;7364;50.870;4.722;2024-02-16T09:18:47;14.70;99.90
14555;DHT22;7364;50.870;4.722;2024-02-16T09:21:14;14.80;99.90
14555;DHT22;7364;50.870;4.722;2024-02-16T09:23:42;14.80;99.90
14555;DHT22;7364;50.870;4.722;2024-02-16T09:26:09;14.90;99.90
14555;DHT22;7364;50.870;4.722;2024-02-16T09:28:39;14.90;99.90
14555;DHT22;7364;50.870;4.722;2024-02-16T09:31:07;15.00;99.90
14555;DHT22;7364;50.870;4.722;2024-02-16T09:33:36;15.20;99.90
14555;DHT22;7364;50.870;4.722;2024-02-16T09:36:04;15.10;99.90
14555;DHT22;7364;50.870;4.722;2024-02-16T09:38:31;15.10;99.90
14555;DHT22;7364;50.870;4.722;2024-02-16T09:40:59;15.10;99.90
14555;DHT22;7364;50.870;4.722;2024-02-16T09:43:29;15.00;99.90
14555;DHT22;7364;50.870;4.722;2024-02-16T09:45:57;14.80;99.90
14555;DHT22;7364;50.870;4.722;2024-02-16T09:48:26;14.70;99.90
14555;DHT22;7364;50.870;4.722;2024-02-16T09:50:57;14.60;99.90
14555;DHT22;7364;50.870;4.722;2024-02-16T09:53:28;14.70;99.90
14555;DHT22;7364;50.870;4.722;2024-02-16T09:55:56;14.70;99.90
14555;DHT22;7364;50.870;4.722;2024-02-16T09:58:23;14.70;99.90
14555;DHT22;7364;50.870;4.722;2024-02-16T10:00:51;14.80;99.90
14555;DHT22;7364;50.870;4.722;2024-02-16T10:03:23;14.60;99.90
14555;DHT22;7364;50.870;4.722;2024-02-16T10:05:50;14.60;99.90
14555;DHT22;7364;50.870;4.722;2024-02-16T10:08:20;14.70;99.90
14555;DHT22;7364;50.870;4.722;2024-02-16T10:10:47;14.60;99.90
14555;DHT22;7364;50.870;4.722;2024-02-16T10:13:15;14.40;99.90
14555;DHT22;7364;50.870;4.722;2024-02-16T10:15:42;14.60;99.90
14555;DHT22;7364;50.870;4.722;2024-02-16T10:18:10;14.60;99.90
14555;DHT22;7364;50.870;4.722;2024-02-16T10:20:39;14.70;99.90
14555;DHT22;7364;50.870;4.722;2024-02-16T10:23:08;14.70;99.90
14555;DHT22;7364;50.870;4.722;2024-02-16T10:25:38;14.80;99.90
14555;DHT22;7364;50.870;4.722;2024-02-16T10:28:08;14.80;99.90
14555;DHT22;7364;50.870;4.722;2024-02-16T10:30:37;14.80;99.90
14555;DHT22;7364;50.870;4.722;2024-02-16T10:33:18;14.70;99.90
14555;DHT22;7364;50.870;4.722;2024-02-16T10:35:49;14.90;99.90
14555;DHT22;7364;50.870;4.722;2024-02-16T10:38:18;15.00;99.90
14555;DHT22;7364;50.870;4.722;2024-02-16T10:40:48;15.10;99.90
14555;DHT22;7364;50.870;4.722;2024-02-16T10:43:18;15.30;99.90
14555;DHT22;7364;50.870;4.722;2024-02-16T10:45:46;15.30;99.90
14555;DHT22;7364;50.870;4.722;2024-02-16T10:48:19;15.50;99.90
14555;DHT22;7364;50.870;4.722;2024-02-16T10:50:46;15.50;99.90
14555;DHT22;7364;50.870;4.722;2024-02-16T10:53:19;15.30;99.90
14555;DHT22;7364;50.870;4.722;2024-02-16T10:55:50;15.00;99.90
14555;DHT22;7364;50.870;4.722;2024-02-16T10:58:18;15.20;99.90
14555;DHT22;7364;50.870;4.722;2024-02-16T11:00:51;15.10;99.90
14555;DHT22;7364;50.870;4.722;2024-02-16T11:03:22;15.00;99.90
14555;DHT22;7364;50.870;4.722;2024-02-16T11:05:53;15.10;99.90
14555;DHT22;7364;50.870;4.722;2024-02-16T11:08:26;15.40;99.90
14555;DHT22;7364;50.870;4.722;2024-02-16T11:10:59;15.30;99.90
14555;DHT22;7364;50.870;4.722;2024-02-16T11:13:32;15.30;99.90
14555;DHT22;7364;50.870;4.722;2024-02-16T11:16:01;15.10;99.90
14555;DHT22;7364;50.870;4.722;2024-02-16T11:18:29;15.00;99.90
14555;DHT22;7364;50.870;4.722;2024-02-16T11:21:00;15.20;99.90
14555;DHT22;7364;50.870;4.722;2024-02-16T11:23:28;15.00;99.90
14555;DHT22;7364;50.870;4.722;2024-02-16T11:26:00;14.90;99.90
14555;DHT22;7364;50.870;4.722;2024-02-16T11:28:28;14.80;99.90
14555;DHT22;7364;50.870;4.722;2024-02-16T11:30:57;14.80;99.90
14555;DHT22;7364;50.870;4.722;2024-02-16T11:33:25;15.00;99.90
14555;DHT22;7364;50.870;4.722;2024-02-16T11:35:55;15.20;99.90
14555;DHT22;7364;50.870;4.722;2024-02-16T11:38:23;14.90;99.90
14555;DHT22;7364;50.870;4.722;2024-02-16T11:40:54;14.60;99.90
14555;DHT22;7364;50.870;4.722;2024-02-16T11:43:24;14.30;99.90
14555;DHT22;7364;50.870;4.722;2024-02-16T11:45:51;14.20;99.90
14555;DHT22;7364;50.870;4.722;2024-02-16T11:48:19;14.20;99.90
14555;DHT22;7364;50.870;4.722;2024-02-16T11:50:58;14.30;99.90
14555;DHT22;7364;50.870;4.722;2024-02-16T11:53:41;14.30;99.90
14555;DHT22;7364;50.870;4.722;2024-02-16T11:56:21;14.30;99.90
14555;DHT22;7364;50.870;4.722;2024-02-16T11:58:55;14.40;99.90
14555;DHT22;7364;50.870;4.722;2024-02-16T12:01:31;14.30;99.90
14555;DHT22;7364;50.870;4.722;2024-02-16T12:04:00;14.40;99.90
14555;DHT22;7364;50.870;4.722;2024-02-16T12:06:27;14.30;99.90
14555;DHT22;7364;50.870;4.722;2024-02-16T12:08:56;14.20;99.90
14555;DHT22;7364;50.870;4.722;2024-02-16T12:11:23;14.30;99.90
14555;DHT22;7364;50.870;4.722;2024-02-16T12:13:53;14.20;99.90
14555;DHT22;7364;50.870;4.722;2024-02-16T12:16:21;14.20;99.90
14555;DHT22;7364;50.870;4.722;2024-02-16T12:19:03;14.20;99.90
14555;DHT22;7364;50.870;4.722;2024-02-16T12:21:33;14.20;99.90
14555;DHT22;7364;50.870;4.722;2024-02-16T12:24:00;14.30;99.90
14555;DHT22;7364;50.870;4.722;2024-02-16T12:26:28;14.30;99.90
14555;DHT22;7364;50.870;4.722;2024-02-16T12:29:01;14.30;99.90
14555;DHT22;7364;50.870;4.722;2024-02-16T12:31:30;14.20;99.90
14555;DHT22;7364;50.870;4.722;2024-02-16T12:33:58;14.10;99.90
14555;DHT22;7364;50.870;4.722;2024-02-16T12:36:29;14.00;99.90
14555;DHT22;7364;50.870;4.722;2024-02-16T12:38:56;14.00;99.90
14555;DHT22;7364;50.870;4.722;2024-02-16T12:41:29;13.90;99.90
14555;DHT22;7364;50.870;4.722;2024-02-16T12:43:58;13.90;99.90
14555;DHT22;7364;50.870;4.722;2024-02-16T12:46:26;13.80;99.90
14555;DHT22;7364;50.870;4.722;2024-02-16T12:48:53;13.70;99.90
14555;DHT22;7364;50.870;4.722;2024-02-16T12:51:21;13.60;99.90
14555;DHT22;7364;50.870;4.722;2024-02-16T12:53:48;13.50;99.90
14555;DHT22;7364;50.870;4.722;2024-02-16T12:56:16;13.40;99.90
14555;DHT22;7364;50.870;4.722;2024-02-16T12:58:43;13.40;99.90
14555;DHT22;7364;50.870;4.722;2024-02-16T13:01:12;13.40;99.90
14555;DHT22;7364;50.870;4.722;2024-02-16T13:03:39;13.30;99.90
14555;DHT22;7364;50.870;4.722;2024-02-16T13:06:07;13.10;99.90
14555;DHT22;7364;50.870;4.722;2024-02-16T13:08:34;13.00;99.90
14555;DHT22;7364;50.870;4.722;2024-02-16T13:11:06;13.00;99.90
14555;DHT22;7364;50.870;4.722;2024-02-16T13:13:34;13.00;99.90
14555;DHT22;7364;50.870;4.722;2024-02-16T13:16:01;13.00;99.90
14555;DHT22;7364;50.870;4.722;2024-02-16T13:18:30;13.00;99.90
14555;DHT22;7364;50.870;4.722;2024-02-16T13:20:57;12.90;99.90
14555;DHT22;7364;50.870;4.722;2024-02-16T13:23:25;12.90;99.90
14555;DHT22;7364;50.870;4.722;2024-02-16T13:25:54;12.90;99.90
14555;DHT22;7364;50.870;4.722;2024-02-16T13:28:21;12.90;99.90
14555;DHT22;7364;50.870;4.722;2024-02-16T13:30:49;12.90;99.90
14555;DHT22;7364;50.870;4.722;2024-02-16T13:33:16;13.00;99.90
14555;DHT22;7364;50.870;4.722;2024-02-16T13:35:44;13.00;99.90
14555;DHT22;7364;50.870;4.722;2024-02-16T13:38:11;13.00;99.90
14555;DHT22;7364;50.870;4.722;2024-02-16T13:40:39;13.00;99.90
14555;DHT22;7364;50.870;4.722;2024-02-16T13:43:08;13.00;99.90
14555;DHT22;7364;50.870;4.722;2024-02-16T13:45:48;13.10;99.90
14555;DHT22;7364;50.870;4.722;2024-02-16T13:48:16;13.10;99.90
14555;DHT22;7364;50.870;4.722;2024-02-16T13:50:46;13.10;99.90
14555;DHT22;7364;50.870;4.722;2024-02-16T13:53:13;13.10;99.90
14555;DHT22;7364;50.870;4.722;2024-02-16T13:55:42;13.10;99.90
14555;DHT22;7364;50.870;4.722;2024-02-16T13:58:09;13.10;99.90
14555;DHT22;7364;50.870;4.722;2024-02-16T14:00:37;13.20;99.90
14555;DHT22;7364;50.870;4.722;2024-02-16T14:03:05;13.20;99.90
14555;DHT22;7364;50.870;4.722;2024-02-16T14:05:34;13.20;99.90
14555;DHT22;7364;50.870;4.722;2024-02-16T14:08:03;13.30;99.90
14555;DHT22;7364;50.870;4.722;2024-02-16T14:10:31;13.30;99.90
14555;DHT22;7364;50.870;4.722;2024-02-16T14:12:58;13.40;99.90
14555;DHT22;7364;50.870;4.722;2024-02-16T14:15:26;13.40;99.90
14555;DHT22;7364;50.870;4.722;2024-02-16T14:17:53;13.30;99.90
14555;DHT22;7364;50.870;4.722;2024-02-16T14:20:20;13.30;99.90
14555;DHT22;7364;50.870;4.722;2024-02-16T14:22:47;13.30;99.90
14555;DHT22;7364;50.870;4.722;2024-02-16T14:25:16;13.40;99.90
14555;DHT22;7364;50.870;4.722;2024-02-16T14:27:44;13.50;99.90
14555;DHT22;7364;50.870;4.722;2024-02-16T14:30:25;13.50;99.90
14555;DHT22;7364;50.870;4.722;2024-02-16T14:32:52;13.40;99.90
14555;DHT22;7364;50.870;4.722;2024-02-16T14:35:19;13.40;99.90
14555;DHT22;7364;50.870;4.722;2024-02-16T14:37:48;13.40;99.90
14555;DHT22;7364;50.870;4.722;2024-02-16T14:40:17;13.40;99.90
14555;DHT22;7364;50.870;4.722;2024-02-16T14:42:44;13.40;99.90
14555;DHT22;7364;50.870;4.722;2024-02-16T14:45:12;13.40;99.90
14555;DHT22;7364;50.870;4.722;2024-02-16T14:47:45;13.30;99.90
14555;DHT22;7364;50.870;4.722;2024-02-16T14:50:12;13.30;99.90
14555;DHT22;7364;50.870;4.722;2024-02-16T14:52:40;13.30;99.90
14555;DHT22;7364;50.870;4.722;2024-02-16T14:55:08;13.20;99.90
14555;DHT22;7364;50.870;4.722;2024-02-16T14:57:38;13.30;99.90
14555;DHT22;7364;50.870;4.722;2024-02-16T15:00:11;13.40;99.90
14555;DHT22;7364;50.870;4.722;2024-02-16T15:02:39;13.40;99.90
14555;DHT22;7364;50.870;4.722;2024-02-16T15:05:08;13.50;99.90
14555;DHT22;7364;50.870;4.722;2024-02-16T15:07:36;13.50;99.90
14555;DHT22;7364;50.870;4.722;2024-02-16T15:10:03;13.50;99.90
14555;DHT22;7364;50.870;4.722;2024-02-16T15:12:31;13.50;99.90
14555;DHT22;7364;50.870;4.722;2024-02-16T15:14:59;13.50;99.90
14555;DHT22;7364;50.870;4.722;2024-02-16T15:17:26;13.60;99.90
14555;DHT22;7364;50.870;4.722;2024-02-16T15:19:53;13.60;99.90
14555;DHT22;7364;50.870;4.722;2024-02-16T15:22:21;13.50;99.90
14555;DHT22;7364;50.870;4.722;2024-02-16T15:24:48;13.50;99.90
14555;DHT22;7364;50.870;4.722;2024-02-16T15:27:15;13.50;99.90
14555;DHT22;7364;50.870;4.722;2024-02-16T15:29:42;13.60;99.90
14555;DHT22;7364;50.870;4.722;2024-02-16T15:32:12;13.60;99.90
14555;DHT22;7364;50.870;4.722;2024-02-16T15:34:39;13.70;99.90
14555;DHT22;7364;50.870;4.722;2024-02-16T15:37:09;13.90;99.90
14555;DHT22;7364;50.870;4.722;2024-02-16T15:39:36;14.00;99.90
14555;DHT22;7364;50.870;4.722;2024-02-16T15:42:03;14.10;99.90
14555;DHT22;7364;50.870;4.722;2024-02-16T15:44:30;14.00;99.90
14555;DHT22;7364;50.870;4.722;2024-02-16T15:46:58;13.90;99.90
14555;DHT22;7364;50.870;4.722;2024-02-16T15:49:27;13.80;99.90
14555;DHT22;7364;50.870;4.722;2024-02-16T15:51:56;13.70;99.90